Time;durP1;ratioP1;P1;durP2;ratioP2;P2;SDS_P1;SDS_P2;PMS_P1;PMS_P2;Temp;Humidity;BMP_temperature;BMP_pressure;BME280_temperature;BME280_humidity;BME280_pressure;Samples;Min_cycle;Max_cycle;Signal;HPM_P1;HPM_P2
2021/11/12 00:03:05;;;;;;;;;;;;;;;;;;2074733;28;2073;-93
2021/11/12 00:04:18;;;;;;;;;;;;;;;;;;2074760;28;1209;-94
2021/11/12 00:12:22;;;;;;;;;;;;;;;;;;2074996;28;1299;-94
2021/11/12 00:13:24;;;;;;;;;;;;;;;;;;2067307;28;1344;-94
2021/11/12 00:14:26;;;;;;;;;;;;;;;;;;2058997;28;1194;-93
2021/11/12 00:15:27;;;;;;;;;;;;;;;;;;2071773;28;1407;-94
2021/11/12 00:16:29;;;;;;;;;;;;;;;;;;2069567;28;2016;-93
2021/11/12 00:17:32;;;;;;;;;;;;;;;;;;2066328;28;1299;-93
2021/11/12 00:18:36;;;;;;;;;;;;;;;;;;2067408;28;2062;-95
2021/11/12 00:19:37;;;;;;;;;;;;;;;;;;2066434;28;1914;-94
2021/11/12 00:20:39;;;;;;;;;;;;;;;;;;2066519;28;1362;-94
2021/11/12 00:21:40;;;;;;;;;;;;;;;;;;2065477;28;2030;-94
2021/11/12 00:22:42;;;;;;;;;;;;;;;;;;2066792;28;1288;-94
2021/11/12 00:23:43;;;;;;;;;;;;;;;;;;2067006;28;1208;-94
2021/11/12 00:24:44;;;;;;;;;;;;;;;;;;2066284;28;1341;-94
2021/11/12 00:25:47;;;;;;;;;;;;;;;;;;2066746;28;1208;-95
2021/11/12 00:26:49;;;;;;;;;;;;;;;;;;2067102;28;1315;-94
2021/11/12 00:27:50;;;;;;;;;;;;;;;;;;2059144;28;2126;-95
2021/11/12 00:28:54;;;;;;;;;;;;;;;;;;2058628;28;1240;-94
2021/11/12 00:30:02;;;;;;;;;;;;;;;;;;2059628;28;1324;-94
2021/11/12 00:31:11;;;;;;;;;;;;;;;;;;2066709;28;2092;-94
2021/11/12 00:32:20;;;;;;;;;;;;;;;;;;2067714;28;1368;-93
2021/11/12 00:34:54;;;;;;;;;;;;;;;;;;2058986;28;1303;-94
2021/11/12 00:36:02;;;;;;;;;;;;;;;;;;2061190;28;2079;-94
2021/11/12 00:37:10;;;;;;;;;;;;;;;;;;2066605;28;1237;-94
2021/11/12 00:38:14;;;;;;;;;;;;;;;;;;2066840;28;2019;-94
2021/11/12 00:39:21;;;;;;;;;;;;;;;;;;2066805;28;1965;-94
2021/11/12 00:40:26;;;;;;;;;;;;;;;;;;2066992;28;1232;-94
2021/11/12 00:41:38;;;;;;;;;;;;;;;;;;2071728;28;2123;-94
2021/11/12 00:42:42;;;;;;;;;;;;;;;;;;2066997;28;1226;-94
2021/11/12 00:43:45;;;;;;;;;;;;;;;;;;2059315;28;1190;-94
2021/11/12 00:44:49;;;;;;;;;;;;;;;;;;2058939;28;1150;-94
2021/11/12 00:45:55;;;;;;;;;;;;;;;;;;2058263;28;2033;-94
2021/11/12 00:47:00;;;;;;;;;;;;;;;;;;2059426;28;1233;-94
2021/11/12 00:48:11;;;;;;;;;;;;;;;;;;2072023;28;1904;-94
2021/11/12 00:49:16;;;;;;;;;;;;;;;;;;2083186;28;1245;-94
2021/11/12 00:50:34;;;;;;;;;;;;;;;;;;2082704;28;1232;-94
2021/11/12 00:51:40;;;;;;;;;;;;;;;;;;2076005;28;2035;-94
2021/11/12 00:53:40;;;;;;;;;;;;;;;;;;2074832;28;1962;-94
2021/11/12 00:54:07;;;;;;;;;;;;;;;;;;2065689;28;1302;-94
2021/11/12 00:55:09;;;;;;;;;;;;;;;;;;2066512;28;1265;-93
2021/11/12 00:56:11;;;;;;;;;;;;;;;;;;2067261;28;1353;-93
2021/11/12 00:57:13;;;;;;;;;;;;;;;;;;2066873;28;891;-93
2021/11/12 00:58:15;;;;;;;;;;;;;;;;;;2079145;28;2046;-93
2021/11/12 00:59:18;;;;;;;;;;;;;;;;;;2074450;28;1914;-93
2021/11/12 01:00:19;;;;;;;;;;;;;;;;;;2066665;28;1157;-93
2021/11/12 01:01:22;;;;;;;;;;;;;;;;;;2066103;28;2017;-93
2021/11/12 01:02:23;;;;;;;;;;;;;;;;;;2074664;28;1221;-93
2021/11/12 01:03:25;;;;;;;;;;;;;;;;;;2074426;28;1209;-93
2021/11/12 01:04:26;;;;;;;;;;;;;;;;;;2066812;28;1330;-94
2021/11/12 01:05:30;;;;;;;;;;;;;;;;;;2074555;28;1275;-93
2021/11/12 01:06:31;;;;;;;;;;;;;;;;;;2073534;28;2047;-94
2021/11/12 01:07:33;;;;;;;;;;;;;;;;;;2066214;28;1414;-93
2021/11/12 01:08:34;;;;;;;;;;;;;;;;;;2059030;28;2117;-93
2021/11/12 01:09:36;;;;;;;;;;;;;;;;;;2066284;28;1300;-94
2021/11/12 01:10:37;;;;;;;;;;;;;;;;;;2066549;28;1184;-93
2021/11/12 01:11:40;;;;;;;;;;;;;;;;;;2066255;28;2080;-92
2021/11/12 01:12:42;;;;;;;;;;;;;;;;;;2066708;28;1759;-93
2021/11/12 01:13:44;;;;;;;;;;;;;;;;;;2075063;28;1301;-93
2021/11/12 01:14:45;;;;;;;;;;;;;;;;;;2074429;28;1421;-93
2021/11/12 01:15:47;;;;;;;;;;;;;;;;;;2074533;28;1478;-94
2021/11/12 01:16:48;;;;;;;;;;;;;;;;;;2074438;28;1207;-93
2021/11/12 01:34:28;;;;;;;;;;;;;;;;;;1993530;29;1344;-92
2021/11/12 01:38:35;;;;;;;;;;;;;;;;;;2041510;29;2056;-95
2021/11/12 01:39:36;;;;;;;;;;;;;;;;;;2043343;29;1903;-94
2021/11/12 01:40:38;;;;;;;;;;;;;;;;;;2043687;29;1260;-95
2021/11/12 01:41:45;;;;;;;;;;;;;;;;;;2051089;28;1218;-93
2021/11/12 01:42:59;;;;;;;;;;;;;;;;;;2058918;28;2067;-93
2021/11/12 01:44:06;;;;;;;;;;;;;;;;;;2063831;28;1333;-93
2021/11/12 01:45:12;;;;;;;;;;;;;;;;;;2060805;28;1133;-94
2021/11/12 01:46:31;;;;;;;;;;;;;;;;;;2068370;28;2048;-94
2021/11/12 01:48:09;;;;;;;;;;;;;;;;;;2067894;28;1231;-94
2021/11/12 01:49:33;;;;;;;;;;;;;;;;;;2074252;28;773;-93
2021/11/12 01:52:32;;;;;;;;;;;;;;;;;;2076556;28;1206;-94
2021/11/12 01:53:38;;;;;;;;;;;;;;;;;;2067771;28;2039;-93
2021/11/12 01:55:04;;;;;;;;;;;;;;;;;;2068436;28;1398;-93
2021/11/12 01:56:27;;;;;;;;;;;;;;;;;;2073394;28;2019;-93
2021/11/12 01:57:55;;;;;;;;;;;;;;;;;;2067428;28;1432;-93
2021/11/12 01:59:15;;;;;;;;;;;;;;;;;;2071186;28;1389;-93
2021/11/12 02:00:20;;;;;;;;;;;;;;;;;;2067711;28;1910;-93
2021/11/12 02:01:35;;;;;;;;;;;;;;;;;;2060943;28;2081;-93
2021/11/12 02:02:46;;;;;;;;;;;;;;;;;;2060585;28;1214;-93
2021/11/12 02:03:53;;;;;;;;;;;;;;;;;;2058420;28;1422;-92
2021/11/12 02:05:12;;;;;;;;;;;;;;;;;;2068714;28;1291;-92
2021/11/12 02:06:27;;;;;;;;;;;;;;;;;;2068129;28;2056;-93
2021/11/12 02:07:42;;;;;;;;;;;;;;;;;;2067367;28;1370;-94
2021/11/12 02:08:48;;;;;;;;;;;;;;;;;;2075412;28;1437;-93
2021/11/12 02:10:09;;;;;;;;;;;;;;;;;;2075741;28;1433;-93
2021/11/12 02:11:26;;;;;;;;;;;;;;;;;;2067043;28;1468;-93
2021/11/12 02:12:33;;;;;;;;;;;;;;;;;;2070119;28;1358;-92
2021/11/12 02:13:36;;;;;;;;;;;;;;;;;;2067415;28;1416;-92
2021/11/12 02:14:39;;;;;;;;;;;;;;;;;;2067912;28;1308;-92
2021/11/12 02:15:43;;;;;;;;;;;;;;;;;;2067575;28;1299;-93
2021/11/12 02:16:54;;;;;;;;;;;;;;;;;;2074245;28;2104;-94
2021/11/12 02:18:00;;;;;;;;;;;;;;;;;;2074806;28;2037;-92
2021/11/12 02:19:03;;;;;;;;;;;;;;;;;;2067534;28;1289;-93
2021/11/12 02:20:11;;;;;;;;;;;;;;;;;;2059746;28;1979;-92
2021/11/12 02:21:23;;;;;;;;;;;;;;;;;;2067291;28;1278;-93
2021/11/12 02:22:30;;;;;;;;;;;;;;;;;;2060980;28;1102;-92
2021/11/12 02:23:34;;;;;;;;;;;;;;;;;;2060267;28;2011;-91
2021/11/12 02:24:39;;;;;;;;;;;;;;;;;;2059773;28;1164;-93
2021/11/12 02:25:42;;;;;;;;;;;;;;;;;;2067853;28;1267;-92
2021/11/12 02:26:45;;;;;;;;;;;;;;;;;;2067775;28;1252;-92
2021/11/12 02:31:28;;;;;;;;;;;;;;;;;;2075574;28;2114;-90
2021/11/12 02:32:30;;;;;;;;;;;;;;;;;;2067501;28;1197;-91
2021/11/12 02:33:33;;;;;;;;;;;;;;;;;;2068103;28;2062;-90
2021/11/12 02:34:34;;;;;;;;;;;;;;;;;;2067612;28;1217;-90
2021/11/12 02:35:38;;;;;;;;;;;;;;;;;;2059513;28;1337;-91
2021/11/12 02:36:42;;;;;;;;;;;;;;;;;;2067546;28;1370;-90
2021/11/12 02:37:43;;;;;;;;;;;;;;;;;;2067318;28;1391;-92
2021/11/12 02:38:45;;;;;;;;;;;;;;;;;;2067048;28;1332;-91
2021/11/12 02:39:47;;;;;;;;;;;;;;;;;;2067243;28;1972;-92
2021/11/12 02:40:50;;;;;;;;;;;;;;;;;;2059360;28;1994;-91
2021/11/12 02:54:39;;;;;;;;;;;;;;;;;;2019089;29;1365;-93
2021/11/12 02:55:50;;;;;;;;;;;;;;;;;;2038753;29;1414;-93
2021/11/12 02:57:03;;;;;;;;;;;;;;;;;;2036970;29;1473;-93
2021/11/12 02:58:16;;;;;;;;;;;;;;;;;;2034522;29;2078;-94
2021/11/12 03:17:21;;;;;;;;;;;;;;;;;;1999138;29;999;-91
2021/11/12 03:59:56;;;;;;;;;;;;;;;;;;2056897;28;1277;-93
2021/11/12 04:01:30;;;;;;;;;;;;;;;;;;2067420;28;1942;-93
2021/11/12 04:02:28;;;;;;;;;;;;;;;;;;2072017;28;1325;-93
2021/11/12 04:03:38;;;;;;;;;;;;;;;;;;2074146;28;2113;-93
2021/11/12 04:04:54;;;;;;;;;;;;;;;;;;2065946;28;1124;-93
2021/11/12 04:06:20;;;;;;;;;;;;;;;;;;2060748;28;2135;-93
2021/11/12 04:07:35;;;;;;;;;;;;;;;;;;2062179;28;1250;-93
2021/11/12 04:20:57;;;;;;;;;;;;;;;;;;2076891;28;1903;-94
2021/11/12 05:43:47;;;;;;;;;;;;;;;;;;2070182;28;1340;-87
2021/11/12 05:45:07;;;;;;;;;;;;;;;;;;2070500;28;1280;-88
2021/11/12 05:46:16;;;;;;;;;;;;;;;;;;2063990;28;1841;-88
2021/11/12 05:50:04;;;;;;;;;;;;;;;;;;2072264;28;1345;-87
2021/11/12 05:51:13;;;;;;;;;;;;;;;;;;2074301;28;1676;-86
2021/11/12 05:52:21;;;;;;;;;;;;;;;;;;2074416;28;1404;-87
2021/11/12 05:56:01;;;;;;;;;;;;;;;;;;2069567;28;1637;-86
2021/11/12 05:57:05;;;;;;;;;;;;;;;;;;2071136;28;1337;-93
2021/11/12 05:58:08;;;;;;;;;;;;;;;;;;2080672;28;1328;-89
2021/11/12 05:59:10;;;;;;;;;;;;;;;;;;2079657;28;1420;-88
2021/11/12 06:00:15;;;;;;;;;;;;;;;;;;2065739;28;1416;-89
2021/11/12 06:01:16;;;;;;;;;;;;;;;;;;2066371;28;1685;-88
2021/11/12 06:02:17;;;;;;;;;;;;;;;;;;2075336;28;1328;-88
2021/11/12 06:03:18;;;;;;;;;;;;;;;;;;2075433;28;1813;-90
2021/11/12 06:04:21;;;;;;;;;;;;;;;;;;2075677;28;1368;-88
2021/11/12 06:05:21;;;;;;;;;;;;;;;;;;2075910;28;1293;-88
2021/11/12 06:06:23;;;;;;;;;;;;;;;;;;2075380;28;1652;-88
2021/11/12 06:07:25;;;;;;;;;;;;;;;;;;2075078;28;1383;-89
2021/11/12 06:08:26;;;;;;;;;;;;;;;;;;2071214;28;1439;-88
2021/11/12 06:09:27;;;;;;;;;;;;;;;;;;2067251;28;1388;-88
2021/11/12 06:10:32;;;;;;;;;;;;;;;;;;2067465;28;1345;-88
2021/11/12 06:11:33;;;;;;;;;;;;;;;;;;2075831;28;1345;-88
2021/11/12 06:12:35;;;;;;;;;;;;;;;;;;2075853;28;1455;-88
2021/11/12 06:13:37;;;;;;;;;;;;;;;;;;2075062;28;2072;-88
2021/11/12 06:14:39;;;;;;;;;;;;;;;;;;2075547;28;1547;-89
2021/11/12 06:15:40;;;;;;;;;;;;;;;;;;2067833;28;1206;-88
2021/11/12 06:16:42;;;;;;;;;;;;;;;;;;2067671;28;1797;-88
2021/11/12 06:17:43;;;;;;;;;;;;;;;;;;2059533;28;1339;-89
2021/11/12 06:18:45;;;;;;;;;;;;;;;;;;2059813;28;1270;-88
2021/11/12 06:19:47;;;;;;;;;;;;;;;;;;2067567;28;1208;-88
2021/11/12 06:20:48;;;;;;;;;;;;;;;;;;2067562;28;1902;-89
2021/11/12 06:21:50;;;;;;;;;;;;;;;;;;2059156;28;1166;-88
2021/11/12 06:22:51;;;;;;;;;;;;;;;;;;2059552;28;1431;-89
2021/11/12 06:23:53;;;;;;;;;;;;;;;;;;2059004;28;1366;-89
2021/11/12 06:24:53;;;;;;;;;;;;;;;;;;2059620;28;1192;-88
2021/11/12 06:25:55;;;;;;;;;;;;;;;;;;2059312;28;1224;-88
2021/11/12 06:26:57;;;;;;;;;;;;;;;;;;2067746;28;1253;-88
2021/11/12 06:27:58;;;;;;;;;;;;;;;;;;2070202;28;1913;-88
2021/11/12 06:29:01;;;;;;;;;;;;;;;;;;2069900;28;1627;-87
2021/11/12 06:30:03;;;;;;;;;;;;;;;;;;2067679;28;1616;-88
2021/11/12 06:31:05;;;;;;;;;;;;;;;;;;2074627;28;1878;-88
2021/11/12 06:32:06;;;;;;;;;;;;;;;;;;2075842;28;1397;-88
2021/11/12 06:33:08;;;;;;;;;;;;;;;;;;2070286;28;2034;-86
2021/11/12 06:34:09;;;;;;;;;;;;;;;;;;2075473;28;1615;-87
2021/11/12 06:35:11;;;;;;;;;;;;;;;;;;2070819;28;1476;-88
2021/11/12 06:36:12;;;;;;;;;;;;;;;;;;2067622;28;1550;-87
2021/11/12 06:37:14;;;;;;;;;;;;;;;;;;2075082;28;1658;-87
2021/11/12 06:38:18;;;;;;;;;;;;;;;;;;2074172;28;1867;-87
2021/11/12 06:39:20;;;;;;;;;;;;;;;;;;2067782;28;1256;-86
2021/11/12 06:40:21;;;;;;;;;;;;;;;;;;2068084;28;1190;-87
2021/11/12 06:41:42;;;;;;;;;;;;;;;;;;2063039;28;1902;-87
2021/11/12 06:42:51;;;;;;;;;;;;;;;;;;2077480;28;1700;-87
2021/11/12 06:43:56;;;;;;;;;;;;;;;;;;2075392;28;1282;-86
2021/11/12 06:50:15;;;;;;;;;;;;;;;;;;2067335;28;1204;-88
2021/11/12 06:51:16;;;;;;;;;;;;;;;;;;2059140;28;1326;-86
2021/11/12 06:52:18;;;;;;;;;;;;;;;;;;2075129;28;1252;-86
2021/11/12 06:53:20;;;;;;;;;;;;;;;;;;2066885;28;2174;-86
2021/11/12 06:54:22;;;;;;;;;;;;;;;;;;2061164;28;1806;-87
2021/11/12 06:55:23;;;;;;;;;;;;;;;;;;2067854;28;1245;-88
2021/11/12 06:56:25;;;;;;;;;;;;;;;;;;2067253;28;1908;-89
2021/11/12 06:57:26;;;;;;;;;;;;;;;;;;2067382;28;1240;-88
2021/11/12 06:58:28;;;;;;;;;;;;;;;;;;2066923;28;2050;-89
2021/11/12 06:59:29;;;;;;;;;;;;;;;;;;2074057;28;1492;-91
2021/11/12 07:00:32;;;;;;;;;;;;;;;;;;2077839;28;1777;-89
2021/11/12 07:01:33;;;;;;;;;;;;;;;;;;2082981;28;1915;-89
2021/11/12 07:02:35;;;;;;;;;;;;;;;;;;2083412;28;1189;-89
2021/11/12 07:03:35;;;;;;;;;;;;;;;;;;2074819;28;1295;-89
2021/11/12 07:04:37;;;;;;;;;;;;;;;;;;2067621;28;1343;-89
2021/11/12 07:05:42;;;;;;;;;;;;;;;;;;2075661;28;1220;-88
2021/11/12 07:06:43;;;;;;;;;;;;;;;;;;2075559;28;1194;-89
2021/11/12 07:07:48;;;;;;;;;;;;;;;;;;2067442;28;2093;-88
2021/11/12 07:08:49;;;;;;;;;;;;;;;;;;2076176;28;909;-88
2021/11/12 07:09:51;;;;;;;;;;;;;;;;;;2075504;28;1145;-89
2021/11/12 07:10:53;;;;;;;;;;;;;;;;;;2074938;28;1909;-89
2021/11/12 07:11:55;;;;;;;;;;;;;;;;;;2075222;28;1224;-87
2021/11/12 07:12:57;;;;;;;;;;;;;;;;;;2077395;28;2097;-89
2021/11/12 07:13:58;;;;;;;;;;;;;;;;;;2086329;28;1491;-89
2021/11/12 07:15:00;;;;;;;;;;;;;;;;;;2075158;28;1196;-89
2021/11/12 07:16:02;;;;;;;;;;;;;;;;;;2082995;28;1908;-89
2021/11/12 07:17:05;;;;;;;;;;;;;;;;;;2075658;28;1545;-89
2021/11/12 07:18:06;;;;;;;;;;;;;;;;;;2072235;28;1875;-90
2021/11/12 07:19:08;;;;;;;;;;;;;;;;;;2074989;28;1553;-88
2021/11/12 07:20:09;;;;;;;;;;;;;;;;;;2086648;28;1322;-88
2021/11/12 07:21:11;;;;;;;;;;;;;;;;;;2082791;28;1915;-89
2021/11/12 07:22:15;;;;;;;;;;;;;;;;;;2075573;28;1592;-89
2021/11/12 07:23:19;;;;;;;;;;;;;;;;;;2074039;28;1650;-87
2021/11/12 07:24:21;;;;;;;;;;;;;;;;;;2083354;28;1649;-87
2021/11/12 07:25:25;;;;;;;;;;;;;;;;;;2075731;28;1270;-95
2021/11/12 07:26:26;;;;;;;;;;;;;;;;;;2074592;28;1847;-87
2021/11/12 07:27:29;;;;;;;;;;;;;;;;;;2083125;28;1295;-87
2021/11/12 07:28:30;;;;;;;;;;;;;;;;;;2079888;28;2088;-90
2021/11/12 07:29:31;;;;;;;;;;;;;;;;;;2075447;28;1236;-89
2021/11/12 07:30:34;;;;;;;;;;;;;;;;;;2069193;28;1287;-89
2021/11/12 07:31:40;;;;;;;;;;;;;;;;;;2069311;28;1704;-91
2021/11/12 07:32:43;;;;;;;;;;;;;;;;;;2082769;28;1652;-89
2021/11/12 07:33:45;;;;;;;;;;;;;;;;;;2082178;28;1307;-89
2021/11/12 07:34:48;;;;;;;;;;;;;;;;;;2067183;28;1328;-86
2021/11/12 07:35:53;;;;;;;;;;;;;;;;;;2077833;28;1732;-86
2021/11/12 07:36:58;;;;;;;;;;;;;;;;;;2068157;28;1386;-88
2021/11/12 07:38:09;;;;;;;;;;;;;;;;;;2074668;28;1437;-89
2021/11/12 07:39:15;;;;;;;;;;;;;;;;;;2076193;28;1256;-84
2021/11/12 07:40:24;;;;;;;;;;;;;;;;;;2075646;28;1407;-83
2021/11/12 07:41:30;;;;;;;;;;;;;;;;;;2074530;28;1926;-84
2021/11/12 07:42:39;;;;;;;;;;;;;;;;;;2083292;28;1350;-84
2021/11/12 07:45:08;;;;;;;;;;;;;;;;;;2074754;28;1320;-84
2021/11/12 07:46:15;;;;;;;;;;;;;;;;;;2067833;28;1906;-83
2021/11/12 07:47:19;;;;;;;;;;;;;;;;;;2075777;28;1328;-87
2021/11/12 07:48:20;;;;;;;;;;;;;;;;;;2079568;28;2107;-89
2021/11/12 07:49:21;;;;;;;;;;;;;;;;;;2075007;28;1341;-89
2021/11/12 07:50:23;;;;;;;;;;;;;;;;;;2072842;28;1618;-87
2021/11/12 07:51:24;;;;;;;;;;;;;;;;;;2078057;28;1866;-88
2021/11/12 07:52:27;;;;;;;;;;;;;;;;;;2075247;28;1281;-89
2021/11/12 07:53:28;;;;;;;;;;;;;;;;;;2082264;28;2071;-89
2021/11/12 07:54:30;;;;;;;;;;;;;;;;;;2083485;28;1199;-88
2021/11/12 07:55:31;;;;;;;;;;;;;;;;;;2082646;28;1199;-89
2021/11/12 07:56:36;;;;;;;;;;;;;;;;;;2074209;28;1869;-88
2021/11/12 07:57:38;;;;;;;;;;;;;;;;;;2071671;28;1552;-88
2021/11/12 07:58:42;;;;;;;;;;;;;;;;;;2083182;28;2152;-88
2021/11/12 07:59:44;;;;;;;;;;;;;;;;;;2082715;28;1504;-94
2021/11/12 08:00:46;;;;;;;;;;;;;;;;;;2081675;28;1371;-90
2021/11/12 08:01:47;;;;;;;;;;;;;;;;;;2074001;28;1997;-90
2021/11/12 08:02:51;;;;;;;;;;;;;;;;;;2084891;28;1970;-90
2021/11/12 08:03:55;;;;;;;;;;;;;;;;;;2066853;28;1304;-89
2021/11/12 08:05:03;;;;;;;;;;;;;;;;;;2076285;28;1270;-89
2021/11/12 08:06:06;;;;;;;;;;;;;;;;;;2081027;28;1853;-90
2021/11/12 08:07:09;;;;;;;;;;;;;;;;;;2066923;28;1245;-89
2021/11/12 08:08:13;;;;;;;;;;;;;;;;;;2065077;28;1906;-89
2021/11/12 08:09:16;;;;;;;;;;;;;;;;;;2074099;28;1338;-89
2021/11/12 08:10:20;;;;;;;;;;;;;;;;;;2066487;28;1280;-90
2021/11/12 08:11:26;;;;;;;;;;;;;;;;;;2070687;28;1873;-89
2021/11/12 08:12:31;;;;;;;;;;;;;;;;;;2075774;28;1238;-89
2021/11/12 08:13:35;;;;;;;;;;;;;;;;;;2076190;28;2045;-90
2021/11/12 08:14:40;;;;;;;;;;;;;;;;;;2083008;28;1377;-90
2021/11/12 08:15:50;;;;;;;;;;;;;;;;;;2083175;28;1153;-90
2021/11/12 08:17:14;;;;;;;;;;;;;;;;;;2084301;28;1247;-90
2021/11/12 08:19:37;;;;;;;;;;;;;;;;;;2081205;28;1363;-90
2021/11/12 08:20:43;;;;;;;;;;;;;;;;;;2075138;28;1160;-89
2021/11/12 08:21:49;;;;;;;;;;;;;;;;;;2090549;28;1883;-89
2021/11/12 08:22:57;;;;;;;;;;;;;;;;;;2090460;28;1996;-90
2021/11/12 08:24:05;;;;;;;;;;;;;;;;;;2083336;28;1392;-90
2021/11/12 08:25:14;;;;;;;;;;;;;;;;;;2083856;28;1310;-90
2021/11/12 08:26:18;;;;;;;;;;;;;;;;;;2086978;28;2019;-89
2021/11/12 08:31:24;;;;;;;;;;;;;;;;;;2074433;28;2012;-90
2021/11/12 08:33:48;;;;;;;;;;;;;;;;;;2082512;28;1280;-90
2021/11/12 08:34:56;;;;;;;;;;;;;;;;;;2082970;28;1326;-90
2021/11/12 08:36:12;;;;;;;;;;;;;;;;;;2075054;28;1909;-90
2021/11/12 08:37:19;;;;;;;;;;;;;;;;;;2076589;28;1160;-90
2021/11/12 08:38:27;;;;;;;;;;;;;;;;;;2081964;28;2041;-90
2021/11/12 08:39:42;;;;;;;;;;;;;;;;;;2082900;28;1391;-90
2021/11/12 08:42:02;;;;;;;;;;;;;;;;;;2074830;28;1982;-90
2021/11/12 08:43:08;;;;;;;;;;;;;;;;;;2075507;28;1834;-90
2021/11/12 08:44:17;;;;;;;;;;;;;;;;;;2075507;28;1319;-89
2021/11/12 08:45:21;;;;;;;;;;;;;;;;;;2082958;28;1379;-90
2021/11/12 08:46:28;;;;;;;;;;;;;;;;;;2074612;28;1849;-89
2021/11/12 08:47:32;;;;;;;;;;;;;;;;;;2074524;28;1215;-90
2021/11/12 08:48:41;;;;;;;;;;;;;;;;;;2082046;28;2045;-90
2021/11/12 08:49:44;;;;;;;;;;;;;;;;;;2075597;28;1378;-89
2021/11/12 08:50:46;;;;;;;;;;;;;;;;;;2082957;28;1239;-89
2021/11/12 08:51:48;;;;;;;;;;;;;;;;;;2067358;28;1335;-89
2021/11/12 08:52:51;;;;;;;;;;;;;;;;;;2067668;28;1360;-91
2021/11/12 08:53:52;;;;;;;;;;;;;;;;;;2082949;28;1343;-90
2021/11/12 08:54:54;;;;;;;;;;;;;;;;;;2082980;28;1248;-90
2021/11/12 08:55:54;;;;;;;;;;;;;;;;;;2074089;28;2021;-89
2021/11/12 08:56:58;;;;;;;;;;;;;;;;;;2066884;28;1286;-89
2021/11/12 08:57:59;;;;;;;;;;;;;;;;;;2074641;28;1396;-91
2021/11/12 08:59:01;;;;;;;;;;;;;;;;;;2074726;28;1133;-90
2021/11/12 09:00:04;;;;;;;;;;;;;;;;;;2066539;28;1303;-90
2021/11/12 09:01:06;;;;;;;;;;;;;;;;;;2067315;28;1969;-90
2021/11/12 09:02:09;;;;;;;;;;;;;;;;;;2066689;28;1903;-89
2021/11/12 09:03:10;;;;;;;;;;;;;;;;;;2070145;28;1292;-89
2021/11/12 09:04:12;;;;;;;;;;;;;;;;;;2074758;28;1223;-89
2021/11/12 09:05:17;;;;;;;;;;;;;;;;;;2074447;28;1455;-89
2021/11/12 09:06:19;;;;;;;;;;;;;;;;;;2073701;28;2047;-90
2021/11/12 09:07:21;;;;;;;;;;;;;;;;;;2074531;28;1224;-89
2021/11/12 09:08:21;;;;;;;;;;;;;;;;;;2074456;28;1256;-89
2021/11/12 09:09:24;;;;;;;;;;;;;;;;;;2074851;28;1093;-90
2021/11/12 09:10:26;;;;;;;;;;;;;;;;;;2074491;28;1219;-90
2021/11/12 09:11:28;;;;;;;;;;;;;;;;;;2079557;28;1935;-90
2021/11/12 09:12:29;;;;;;;;;;;;;;;;;;2074348;28;1336;-90
2021/11/12 09:13:34;;;;;;;;;;;;;;;;;;2074389;28;1327;-90
2021/11/12 09:14:39;;;;;;;;;;;;;;;;;;2082709;28;1284;-90
2021/11/12 09:15:40;;;;;;;;;;;;;;;;;;2074727;28;1279;-89
2021/11/12 09:16:44;;;;;;;;;;;;;;;;;;2067155;28;1845;-91
2021/11/12 09:17:46;;;;;;;;;;;;;;;;;;2074748;28;1532;-89
2021/11/12 09:18:48;;;;;;;;;;;;;;;;;;2074607;28;1189;-90
2021/11/12 09:19:52;;;;;;;;;;;;;;;;;;2074460;28;1197;-89
2021/11/12 09:20:54;;;;;;;;;;;;;;;;;;2075157;28;1909;-90
2021/11/12 09:21:56;;;;;;;;;;;;;;;;;;2082697;28;1910;-89
2021/11/12 09:22:58;;;;;;;;;;;;;;;;;;2082659;28;1323;-89
2021/11/12 09:24:00;;;;;;;;;;;;;;;;;;2082583;28;1220;-89
2021/11/12 09:25:01;;;;;;;;;;;;;;;;;;2082776;28;915;-89
2021/11/12 09:26:04;;;;;;;;;;;;;;;;;;2082541;28;2046;-89
2021/11/12 09:27:05;;;;;;;;;;;;;;;;;;2074053;28;1348;-90
2021/11/12 09:28:07;;;;;;;;;;;;;;;;;;2074927;28;1325;-89
2021/11/12 09:29:09;;;;;;;;;;;;;;;;;;2074554;28;1454;-89
2021/11/12 09:30:13;;;;;;;;;;;;;;;;;;2061481;28;1329;-89
2021/11/12 09:31:15;;;;;;;;;;;;;;;;;;2077705;28;1860;-90
2021/11/12 09:32:17;;;;;;;;;;;;;;;;;;2073976;28;1226;-89
2021/11/12 09:33:18;;;;;;;;;;;;;;;;;;2074855;28;1315;-89
2021/11/12 09:34:20;;;;;;;;;;;;;;;;;;2074930;28;1459;-89
2021/11/12 09:35:21;;;;;;;;;;;;;;;;;;2074494;28;1221;-89
2021/11/12 09:36:24;;;;;;;;;;;;;;;;;;2079541;28;1925;-90
2021/11/12 09:37:25;;;;;;;;;;;;;;;;;;2082651;28;1319;-90
2021/11/12 09:38:27;;;;;;;;;;;;;;;;;;2082375;28;1088;-89
2021/11/12 09:39:28;;;;;;;;;;;;;;;;;;2082645;28;1232;-89
2021/11/12 09:40:30;;;;;;;;;;;;;;;;;;2082558;28;1321;-90
2021/11/12 09:41:32;;;;;;;;;;;;;;;;;;2076877;28;1888;-90
2021/11/12 09:42:34;;;;;;;;;;;;;;;;;;2082902;28;2025;-89
2021/11/12 09:43:36;;;;;;;;;;;;;;;;;;2082549;28;2126;-89
2021/11/12 09:44:37;;;;;;;;;;;;;;;;;;2082735;28;1418;-89
2021/11/12 09:45:39;;;;;;;;;;;;;;;;;;2080959;28;1164;-89
2021/11/12 09:46:42;;;;;;;;;;;;;;;;;;2084383;28;1333;-89
2021/11/12 09:47:43;;;;;;;;;;;;;;;;;;2083534;28;1942;-90
2021/11/12 09:48:45;;;;;;;;;;;;;;;;;;2075276;28;1300;-89
2021/11/12 09:49:46;;;;;;;;;;;;;;;;;;2076041;28;1304;-89
2021/11/12 09:50:48;;;;;;;;;;;;;;;;;;2068045;28;1901;-89
2021/11/12 09:51:51;;;;;;;;;;;;;;;;;;2076445;28;1383;-90
2021/11/12 09:52:52;;;;;;;;;;;;;;;;;;2077293;28;2104;-89
2021/11/12 09:53:54;;;;;;;;;;;;;;;;;;2075538;28;1320;-90
2021/11/12 09:54:55;;;;;;;;;;;;;;;;;;2060255;28;1226;-89
2021/11/12 09:55:57;;;;;;;;;;;;;;;;;;2076264;28;1883;-89
2021/11/12 09:56:58;;;;;;;;;;;;;;;;;;2076018;28;1185;-92
2021/11/12 09:58:02;;;;;;;;;;;;;;;;;;2070125;28;1158;-89
2021/11/12 09:59:03;;;;;;;;;;;;;;;;;;2084045;28;1319;-90
2021/11/12 10:00:08;;;;;;;;;;;;;;;;;;2076216;28;1363;-89
2021/11/12 10:01:14;;;;;;;;;;;;;;;;;;2076866;28;1156;-89
2021/11/12 10:02:16;;;;;;;;;;;;;;;;;;2083870;28;1910;-90
2021/11/12 10:03:17;;;;;;;;;;;;;;;;;;2083615;28;1941;-89
2021/11/12 10:04:18;;;;;;;;;;;;;;;;;;2075776;28;1291;-89
2021/11/12 10:05:35;;;;;;;;;;;;;;;;;;2071706;28;1277;-89
2021/11/12 10:06:36;;;;;;;;;;;;;;;;;;2083841;28;923;-90
2021/11/12 10:07:40;;;;;;;;;;;;;;;;;;2075757;28;1305;-90
2021/11/12 10:08:41;;;;;;;;;;;;;;;;;;2075058;28;2126;-89
2021/11/12 10:09:43;;;;;;;;;;;;;;;;;;2075805;28;1168;-90
2021/11/12 10:10:45;;;;;;;;;;;;;;;;;;2068056;28;1216;-89
2021/11/12 10:11:50;;;;;;;;;;;;;;;;;;2067704;28;1208;-89
2021/11/12 10:12:54;;;;;;;;;;;;;;;;;;2078454;28;2045;-90
2021/11/12 10:14:05;;;;;;;;;;;;;;;;;;2092190;28;1281;-90
2021/11/12 10:15:12;;;;;;;;;;;;;;;;;;2092307;28;1297;-89
2021/11/12 10:16:23;;;;;;;;;;;;;;;;;;2092111;28;1369;-89
2021/11/12 10:17:25;;;;;;;;;;;;;;;;;;2085705;28;1246;-89
2021/11/12 10:18:27;;;;;;;;;;;;;;;;;;2085863;28;1929;-90
2021/11/12 10:19:29;;;;;;;;;;;;;;;;;;2076089;28;1222;-90
2021/11/12 10:20:31;;;;;;;;;;;;;;;;;;2067935;28;1188;-90
2021/11/12 10:21:33;;;;;;;;;;;;;;;;;;2067588;28;1953;-91
2021/11/12 10:22:38;;;;;;;;;;;;;;;;;;2067327;28;1906;-89
2021/11/12 10:23:42;;;;;;;;;;;;;;;;;;2076232;28;2115;-89
2021/11/12 10:24:44;;;;;;;;;;;;;;;;;;2075843;28;1161;-90
2021/11/12 10:25:53;;;;;;;;;;;;;;;;;;2075863;28;1259;-90
2021/11/12 10:26:56;;;;;;;;;;;;;;;;;;2084080;28;1241;-89
2021/11/12 10:27:58;;;;;;;;;;;;;;;;;;2083409;28;1250;-89
2021/11/12 10:29:01;;;;;;;;;;;;;;;;;;2083902;28;1306;-90
2021/11/12 10:30:08;;;;;;;;;;;;;;;;;;2083868;28;1335;-91
2021/11/12 10:31:09;;;;;;;;;;;;;;;;;;2083852;28;1219;-89
2021/11/12 10:32:12;;;;;;;;;;;;;;;;;;2075774;28;1270;-89
2021/11/12 10:33:15;;;;;;;;;;;;;;;;;;2072621;28;1588;-90
2021/11/12 10:34:29;;;;;;;;;;;;;;;;;;2067392;28;1521;-91
2021/11/12 10:35:34;;;;;;;;;;;;;;;;;;2074319;28;1611;-90
2021/11/12 10:36:48;;;;;;;;;;;;;;;;;;2075936;28;1528;-89
2021/11/12 10:37:51;;;;;;;;;;;;;;;;;;2067964;28;1785;-89
2021/11/12 10:38:59;;;;;;;;;;;;;;;;;;2067651;28;1707;-89
2021/11/12 10:40:04;;;;;;;;;;;;;;;;;;2075915;28;1373;-88
2021/11/12 10:41:12;;;;;;;;;;;;;;;;;;2068255;28;1410;-89
2021/11/12 10:42:19;;;;;;;;;;;;;;;;;;2077088;28;1907;-89
2021/11/12 10:43:21;;;;;;;;;;;;;;;;;;2075651;28;1295;-89
2021/11/12 10:44:24;;;;;;;;;;;;;;;;;;2067527;28;1434;-89
2021/11/12 10:45:31;;;;;;;;;;;;;;;;;;2068501;28;1313;-89
2021/11/12 10:46:34;;;;;;;;;;;;;;;;;;2083790;28;1443;-89
2021/11/12 10:47:46;;;;;;;;;;;;;;;;;;2075346;28;879;-89
2021/11/12 10:48:46;;;;;;;;;;;;;;;;;;2075982;28;1439;-89
2021/11/12 10:49:53;;;;;;;;;;;;;;;;;;2075224;28;1374;-90
2021/11/12 10:51:14;;;;;;;;;;;;;;;;;;2076817;28;1421;-92
2021/11/12 10:53:50;;;;;;;;;;;;;;;;;;2068486;28;1424;-90
2021/11/12 10:54:58;;;;;;;;;;;;;;;;;;2070629;28;1323;-89
2021/11/12 10:55:59;;;;;;;;;;;;;;;;;;2069244;28;1446;-88
2021/11/12 10:57:02;;;;;;;;;;;;;;;;;;2059384;28;1328;-88
2021/11/12 10:58:06;;;;;;;;;;;;;;;;;;2067209;28;1444;-89
2021/11/12 10:59:07;;;;;;;;;;;;;;;;;;2061885;28;1478;-89
2021/11/12 11:00:13;;;;;;;;;;;;;;;;;;2074834;28;1096;-91
2021/11/12 11:01:14;;;;;;;;;;;;;;;;;;2070505;28;1430;-91
2021/11/12 11:02:21;;;;;;;;;;;;;;;;;;2067299;28;1914;-86
2021/11/12 11:03:25;;;;;;;;;;;;;;;;;;2067785;28;2015;-86
2021/11/12 11:04:27;;;;;;;;;;;;;;;;;;2083557;28;1469;-87
2021/11/12 11:05:30;;;;;;;;;;;;;;;;;;2091844;28;1346;-89
2021/11/12 11:06:32;;;;;;;;;;;;;;;;;;2083272;28;2055;-90
2021/11/12 11:07:34;;;;;;;;;;;;;;;;;;2075241;28;1264;-89
2021/11/12 11:08:42;;;;;;;;;;;;;;;;;;2075640;28;1443;-90
2021/11/12 11:09:42;;;;;;;;;;;;;;;;;;2076242;28;1243;-91
2021/11/12 11:10:49;;;;;;;;;;;;;;;;;;2083286;28;1231;-90
2021/11/12 11:11:51;;;;;;;;;;;;;;;;;;2084424;28;1301;-89
2021/11/12 11:12:54;;;;;;;;;;;;;;;;;;2091525;28;1289;-90